Eships Dana — ZDJT6 — position and weather

sailwx.info

Track history (hours):
 
Tides and Currents Weather Stations Pressure Air Temp Water Temp Dewpoint Dewpoint Depression Visibility Wind Speed Wind Dir Waves Ship Positions

Eships Dana

Last reported at 2017-Apr-27 12:01 UTC. Time now 2017-Apr-28 06:36 UTC.
Position N 56°02' W 003°41'.

Length 116 m; draft 5.5 m.

Type: Ship (hazmat cat A). MMSI: 236566000.

Date/timePositionNaut miles runAvg speedWind from/ knotsBaromVisibWave heightAir tempDewpointWater temp
2017-Apr-27 12:01N 56°02' W 003°41'0 0.0
2017-Apr-27 11:21N 56°02' W 003°41'0 0.1
2017-Apr-27 11:01N 56°02' W 003°41'6 3.4
2017-Apr-27 09:10N 56°01' W 003°30'212.0
2017-Apr-27 08:59N 56°01' W 003°27'510.2
2017-Apr-27 08:31N 56°01' W 003°18'612.0
2017-Apr-27 08:01N 56°03' W 003°08'2 3.9
2017-Apr-27 07:31N 56°04' W 003°05'1 1.3
2017-Apr-27 07:01N 56°05' W 003°06'0 0.2
2017-Apr-27 06:28N 56°05' W 003°05'0 0.0
2017-Apr-27 05:58N 56°05' W 003°05'0 0.0
2017-Apr-27 05:28N 56°05' W 003°05'0 0.0
2017-Apr-27 04:58N 56°05' W 003°05'0 0.0
2017-Apr-27 04:31N 56°05' W 003°05'0 0.0
2017-Apr-27 03:58N 56°05' W 003°05'0 0.0
2017-Apr-27 03:28N 56°05' W 003°05'0 0.0
2017-Apr-27 03:01N 56°05' W 003°05'0 0.0
2017-Apr-27 02:31N 56°05' W 003°05'0 0.0
2017-Apr-27 01:58N 56°05' W 003°05'0 0.0
2017-Apr-27 01:28N 56°05' W 003°05'0 0.0
2017-Apr-27 00:58N 56°05' W 003°05'0 0.0
2017-Apr-27 00:31N 56°05' W 003°05'0 0.0
2017-Apr-26 23:58N 56°05' W 003°05'0 0.1
2017-Apr-26 23:28N 56°05' W 003°05'0 0.1
2017-Apr-26 23:01N 56°05' W 003°06'0 0.1
2017-Apr-26 22:28N 56°05' W 003°06'0 0.0
2017-Apr-26 21:58N 56°05' W 003°06'0 0.1
2017-Apr-26 21:28N 56°05' W 003°05'0 0.1
2017-Apr-26 21:01N 56°05' W 003°05'0 0.0
2017-Apr-26 20:28N 56°05' W 003°05'0 0.0
2017-Apr-26 19:58N 56°05' W 003°05'0 0.0
2017-Apr-26 19:31N 56°05' W 003°05'0 0.0
2017-Apr-26 19:00N 56°05' W 003°05'0 0.0
2017-Apr-26 18:30N 56°05' W 003°06'0 0.3
2017-Apr-26 18:00N 56°05' W 003°05'2 3.6
2017-Apr-26 17:30N 56°05' W 003°02'5 9.3
2017-Apr-26 17:01N 56°06' W 002°54'612.1
2017-Apr-26 16:30N 56°08' W 002°43'713.1
2017-Apr-26 16:00N 56°07' W 002°32'713.4
2017-Apr-26 15:30N 56°05' W 002°21'713.2
2017-Apr-26 15:00N 56°01' W 002°10'612.7
2017-Apr-26 14:31N 55°59' W 001°60'1211.9
2017-Apr-26 13:30N 55°50' W 001°45'611.7
2017-Apr-26 13:00N 55°46' W 001°38'710.9
2017-Apr-26 12:24N 55°41' W 001°30'410.8
2017-Apr-26 12:00N 55°38' W 001°26'611.3
2017-Apr-26 11:30N 55°33' W 001°19'611.8
2017-Apr-26 11:00N 55°29' W 001°12'612.2
2017-Apr-26 10:30N 55°25' W 001°05'612.0
2017-Apr-26 10:00N 55°20' W 000°58'612.1
2017-Apr-26 09:30N 55°15' W 000°51'4611.6
2017-Apr-26 05:33N 54°50' E 000°16'1 9.0
2017-Apr-26 05:30N 54°50' E 000°17'4 8.8
2017-Apr-26 05:00N 54°47' E 000°22'12 8.7
2017-Apr-26 03:37N 54°38' E 000°37'1 8.6
2017-Apr-26 03:30N 54°38' E 000°38'183 9.7
2017-Apr-25 08:43N 51°49' E 002°36'3 8.5
2017-Apr-25 08:24N 51°46' E 002°35'4 9.4
2017-Apr-25 08:00N 51°43' E 002°33'5 9.8
2017-Apr-25 07:29N 51°39' E 002°28'5 9.8
2017-Apr-25 07:00N 51°35' E 002°23'5 9.6
2017-Apr-25 06:27N 51°31' E 002°17'410.1
2017-Apr-25 06:00N 51°28' E 002°12'510.1
2017-Apr-25 05:30N 51°23' E 002°11'510.7
2017-Apr-25 05:00N 51°20' E 002°18'612.6
2017-Apr-25 04:30N 51°22' E 002°28'4 8.4
2017-Apr-25 04:01N 51°21' E 002°34'2 2.9
2017-Apr-25 03:29N 51°20' E 002°36'0 0.0
2017-Apr-25 02:59N 51°20' E 002°36'0 0.0
2017-Apr-25 02:29N 51°20' E 002°36'0 0.0
2017-Apr-25 01:59N 51°20' E 002°36'0 0.0
2017-Apr-25 01:29N 51°20' E 002°36'0 0.1
2017-Apr-25 00:59N 51°20' E 002°36'0 0.0
2017-Apr-25 00:29N 51°20' E 002°36'0 0.0
2017-Apr-24 23:59N 51°20' E 002°36'0 0.0
2017-Apr-24 23:29N 51°20' E 002°36'0 0.0
2017-Apr-24 22:59N 51°20' E 002°36'0 0.1
2017-Apr-24 22:29N 51°20' E 002°36'0 0.0
2017-Apr-24 21:59N 51°20' E 002°36'0 0.1
2017-Apr-24 21:29N 51°20' E 002°36'0 0.1
2017-Apr-24 20:59N 51°20' E 002°36'0 0.1
2017-Apr-24 20:29N 51°20' E 002°36'0 0.0
2017-Apr-24 19:59N 51°20' E 002°36'0 0.1
2017-Apr-24 19:29N 51°20' E 002°36'0 0.0
2017-Apr-24 18:59N 51°20' E 002°36'0 0.1
2017-Apr-24 18:29N 51°20' E 002°36'0 0.0
2017-Apr-24 17:59N 51°20' E 002°36'0 0.2
2017-Apr-24 17:29N 51°20' E 002°36'0 0.1
2017-Apr-24 16:56N 51°20' E 002°36'0 0.1
2017-Apr-24 16:29N 51°20' E 002°36'0 0.0
2017-Apr-24 15:59N 51°20' E 002°36'0 0.0
2017-Apr-24 15:29N 51°20' E 002°36'0 0.0
2017-Apr-24 14:59N 51°20' E 002°36'0 0.0
2017-Apr-24 14:29N 51°20' E 002°36'0 0.0
2017-Apr-24 13:29N 51°20' E 002°36'0 0.0
2017-Apr-24 12:59N 51°20' E 002°36'0 0.0
2017-Apr-24 12:29N 51°20' E 002°36'0 0.0
2017-Apr-24 11:59N 51°20' E 002°36'0 0.0
2017-Apr-24 11:29N 51°20' E 002°36'0 0.0
2017-Apr-24 10:59N 51°20' E 002°36'0 0.0
2017-Apr-24 10:29N 51°20' E 002°36'0 0.0
2017-Apr-24 09:59N 51°20' E 002°36'0 0.0
2017-Apr-24 09:29N 51°20' E 002°36'0 0.1
2017-Apr-24 08:56N 51°20' E 002°36'0 0.0
2017-Apr-24 08:29N 51°20' E 002°36'0 0.0
2017-Apr-24 07:59N 51°20' E 002°36'0 0.2
2017-Apr-24 07:29N 51°20' E 002°36'0 0.0
2017-Apr-24 06:59N 51°20' E 002°36'0 0.0
2017-Apr-24 06:26N 51°20' E 002°36'0 0.1
2017-Apr-24 05:59N 51°20' E 002°36'0 0.2
2017-Apr-24 05:29N 51°20' E 002°36'0 0.2
2017-Apr-24 04:59N 51°20' E 002°36'0 0.0
2017-Apr-24 04:29N 51°20' E 002°36'0 0.0
2017-Apr-24 03:59N 51°20' E 002°36'0 0.0
2017-Apr-24 03:29N 51°20' E 002°36'0 0.0
2017-Apr-24 02:59N 51°20' E 002°36'0 0.0
2017-Apr-24 02:29N 51°20' E 002°36'0 0.0
2017-Apr-24 01:59N 51°20' E 002°36'0 0.0
2017-Apr-24 01:29N 51°20' E 002°36'0 0.0
2017-Apr-24 00:59N 51°20' E 002°36'0 0.0
2017-Apr-24 00:29N 51°20' E 002°36'0 0.0
2017-Apr-23 23:59N 51°20' E 002°36'0 0.0
2017-Apr-23 23:29N 51°20' E 002°36'0 0.0
2017-Apr-23 22:59N 51°20' E 002°36'0 0.0
2017-Apr-23 22:29N 51°20' E 002°36'0 0.0
2017-Apr-23 21:59N 51°20' E 002°36'0 0.0
2017-Apr-23 21:29N 51°20' E 002°36'0 0.2
2017-Apr-23 20:59N 51°20' E 002°36'0 0.1
2017-Apr-23 20:29N 51°20' E 002°36'0 0.0
2017-Apr-23 19:59N 51°20' E 002°36'0 0.0
2017-Apr-23 19:29N 51°20' E 002°36'0 0.0
2017-Apr-23 18:59N 51°20' E 002°36'0 0.0
2017-Apr-23 18:29N 51°20' E 002°36'0 0.0
2017-Apr-23 17:59N 51°20' E 002°36'0 0.0
2017-Apr-23 17:29N 51°20' E 002°36'0 0.0
2017-Apr-23 16:59N 51°20' E 002°36'0 0.0
2017-Apr-23 16:26N 51°20' E 002°36'0 0.0
2017-Apr-23 15:59N 51°20' E 002°36'0 0.0
2017-Apr-23 15:29N 51°20' E 002°36'0 0.0
2017-Apr-23 14:59N 51°20' E 002°36'0 0.0
2017-Apr-23 13:59N 51°20' E 002°36'0 0.2
2017-Apr-23 13:29N 51°20' E 002°36'0 0.0
2017-Apr-23 12:59N 51°20' E 002°36'0 0.0
2017-Apr-23 12:29N 51°20' E 002°36'0 0.0
2017-Apr-23 11:59N 51°20' E 002°36'0 0.0
2017-Apr-23 11:29N 51°20' E 002°36'0 0.0
2017-Apr-23 10:59N 51°20' E 002°36'0 0.0
2017-Apr-23 10:29N 51°20' E 002°36'0 0.0
2017-Apr-23 09:59N 51°20' E 002°36'0 0.0
2017-Apr-23 09:29N 51°20' E 002°36'0 0.0
2017-Apr-23 08:59N 51°20' E 002°36'0 0.1
2017-Apr-23 08:29N 51°20' E 002°36'0 0.1
2017-Apr-23 07:59N 51°20' E 002°36'0 0.0
2017-Apr-23 07:29N 51°20' E 002°36'0 0.0
2017-Apr-23 06:59N 51°20' E 002°36'0 0.0
2017-Apr-23 06:29N 51°20' E 002°36'0 0.0
2017-Apr-23 05:59N 51°20' E 002°36'0 0.0
2017-Apr-23 05:29N 51°20' E 002°36'0 0.0
2017-Apr-23 04:59N 51°20' E 002°36'0 0.0
2017-Apr-23 04:29N 51°20' E 002°36'0 0.0
2017-Apr-23 03:53N 51°20' E 002°36'0 0.0
2017-Apr-23 03:29N 51°20' E 002°36'0 0.0
2017-Apr-23 02:59N 51°20' E 002°36'0 0.0
2017-Apr-23 02:29N 51°20' E 002°36'0 0.0
2017-Apr-23 01:59N 51°20' E 002°36'0 0.0
2017-Apr-23 01:29N 51°20' E 002°36'0 0.0
2017-Apr-23 00:59N 51°20' E 002°36'0 0.1
2017-Apr-23 00:29N 51°20' E 002°36'0 0.1
2017-Apr-22 23:59N 51°20' E 002°36'0 0.0
2017-Apr-22 23:29N 51°20' E 002°36'0 0.0
2017-Apr-22 22:59N 51°20' E 002°36'0 0.5
2017-Apr-22 22:30N 51°21' E 002°36'4 7.2
2017-Apr-22 22:00N 51°22' E 002°31'713.1
2017-Apr-22 21:31N 51°19' E 002°21'714.0
2017-Apr-22 21:00N 51°15' E 002°12'714.0
2017-Apr-22 20:31N 51°12' E 002°02'713.0
2017-Apr-22 20:00N 51°10' E 001°52'713.5
2017-Apr-22 19:30N 51°05' E 001°44'612.6
2017-Apr-22 19:00N 51°00' E 001°38'510.5
2017-Apr-22 18:30N 50°57' E 001°32'611.9
2017-Apr-22 18:00N 50°51' E 001°28'611.6
2017-Apr-22 17:30N 50°46' E 001°26'611.3
2017-Apr-22 17:00N 50°41' E 001°21'611.8
2017-Apr-22 16:30N 50°37' E 001°13'3911.1
2017-Apr-22 13:02N 50°21' E 000°18'011.4
2017-Apr-22 13:00N 50°21' E 000°18'611.3
2017-Apr-22 12:30N 50°19' E 000°10'611.3
2017-Apr-22 12:00N 50°17' E 000°01'611.1
2017-Apr-22 11:27N 50°13' W 000°05'511.7
2017-Apr-22 11:00N 50°08' W 000°08'611.9
2017-Apr-22 10:30N 50°02' W 000°12'612.1
2017-Apr-22 10:00N 49°57' W 000°15'612.2
2017-Apr-22 09:30N 49°51' W 000°15'713.0
2017-Apr-22 09:00N 49°45' W 000°10'612.5
2017-Apr-22 08:30N 49°39' W 000°06'612.5
2017-Apr-22 08:00N 49°34' W 000°02'611.6
2017-Apr-22 07:30N 49°29' E 000°04'4 8.1
2017-Apr-22 07:01N 49°29' E 000°10'0 0.4
2017-Apr-22 06:30N 49°29' E 000°11'1 1.9
2017-Apr-22 06:00N 49°29' E 000°12'0 0.0
2017-Apr-22 05:30N 49°29' E 000°12'0 0.0
2017-Apr-22 05:00N 49°29' E 000°12'0 0.0
2017-Apr-22 04:30N 49°29' E 000°12'0 0.0
2017-Apr-22 04:00N 49°29' E 000°12'0 0.0
2017-Apr-22 03:30N 49°29' E 000°12'0 0.0
2017-Apr-22 03:00N 49°29' E 000°12'0 0.0
2017-Apr-22 02:30N 49°29' E 000°12'0 0.0
2017-Apr-22 02:00N 49°29' E 000°12'0 0.0
2017-Apr-22 01:30N 49°29' E 000°12'0 0.0
2017-Apr-22 01:00N 49°29' E 000°12'0 0.0
2017-Apr-22 00:30N 49°29' E 000°12'0 0.0
2017-Apr-22 00:00N 49°29' E 000°12'0 0.0
2017-Apr-21 23:30N 49°29' E 000°12'0 0.0
2017-Apr-21 23:00N 49°29' E 000°12'0 0.0
2017-Apr-21 22:30N 49°29' E 000°12'0 0.0
2017-Apr-21 22:00N 49°29' E 000°12'0 0.0
2017-Apr-21 21:30N 49°29' E 000°12'0 0.0
2017-Apr-21 21:00N 49°29' E 000°12'0 0.0
2017-Apr-21 20:30N 49°29' E 000°12'0 0.0
2017-Apr-21 20:00N 49°29' E 000°12'0 0.0
2017-Apr-21 19:30N 49°29' E 000°12'0 0.0
2017-Apr-21 19:00N 49°29' E 000°12'0 0.0
2017-Apr-21 18:30N 49°29' E 000°12'0 0.0
2017-Apr-21 18:00N 49°29' E 000°12'0 0.0
2017-Apr-21 17:30N 49°29' E 000°12'0 0.0
2017-Apr-21 17:00N 49°29' E 000°12'0 0.0
2017-Apr-21 16:30N 49°29' E 000°12'0 0.0
2017-Apr-21 16:00N 49°29' E 000°12'0 0.0
2017-Apr-21 15:30N 49°29' E 000°12'0 0.0
2017-Apr-21 15:00N 49°29' E 000°12'0 0.0
2017-Apr-21 14:30N 49°29' E 000°12'0 0.0
2017-Apr-21 13:30N 49°29' E 000°12'0 0.0
2017-Apr-21 13:00N 49°29' E 000°12'0 0.0
2017-Apr-21 12:30N 49°29' E 000°12'0 0.0
2017-Apr-21 12:00N 49°29' E 000°12'0 0.0
2017-Apr-21 11:30N 49°29' E 000°12'0 0.0
2017-Apr-21 11:00N 49°29' E 000°12'0 0.0
2017-Apr-21 10:30N 49°29' E 000°12'0 0.0
2017-Apr-21 10:00N 49°29' E 000°12'0 0.0
2017-Apr-21 09:30N 49°29' E 000°12'0 0.0
2017-Apr-21 09:00N 49°29' E 000°12'0 0.0
2017-Apr-21 08:30N 49°29' E 000°12'0 0.0
2017-Apr-21 08:00N 49°29' E 000°12'0 0.0
2017-Apr-21 07:30N 49°29' E 000°12'0 0.0
2017-Apr-21 07:00N 49°29' E 000°12'0 0.0
2017-Apr-21 06:30N 49°29' E 000°12'0 0.0
2017-Apr-21 06:00N 49°29' E 000°12'0 0.0
2017-Apr-21 05:30N 49°29' E 000°12'0 0.0
2017-Apr-21 05:00N 49°29' E 000°12'0 0.0
2017-Apr-21 04:30N 49°29' E 000°12'0 0.0
2017-Apr-21 04:00N 49°29' E 000°12'0 0.0
2017-Apr-21 03:30N 49°29' E 000°12'0 0.0
2017-Apr-21 03:00N 49°29' E 000°12'0 0.0
2017-Apr-21 02:30N 49°29' E 000°12'0 0.0
2017-Apr-21 02:00N 49°29' E 000°12'0 0.0
2017-Apr-21 01:30N 49°29' E 000°12'0 0.0
2017-Apr-21 01:00N 49°29' E 000°12'0 0.0
2017-Apr-21 00:30N 49°29' E 000°12'0 0.0
2017-Apr-21 00:00N 49°29' E 000°12'0 0.0
2017-Apr-20 23:30N 49°29' E 000°12'0 0.0
2017-Apr-20 23:00N 49°29' E 000°12'0 0.0
2017-Apr-20 22:30N 49°29' E 000°12'0 0.0
2017-Apr-20 22:00N 49°29' E 000°12'0 0.0
2017-Apr-20 21:30N 49°29' E 000°12'1 2.4
2017-Apr-20 21:01N 49°29' E 000°10'0 0.6
2017-Apr-20 20:31N 49°28' E 000°10'5 9.5
2017-Apr-20 20:01N 49°30' E 000°03'3 6.6
2017-Apr-20 19:30N 49°29' W 000°02'0 0.0
2017-Apr-20 19:00N 49°29' W 000°02'0 0.0
2017-Apr-20 18:30N 49°29' W 000°02'0 0.0
2017-Apr-20 18:00N 49°29' W 000°02'0 0.0
2017-Apr-20 17:30N 49°29' W 000°02'0 0.0
2017-Apr-20 17:00N 49°29' W 000°02'0 0.1
2017-Apr-20 16:30N 49°29' W 000°02'0 0.1
2017-Apr-20 16:00N 49°29' W 000°02'0 0.1
2017-Apr-20 15:30N 49°29' W 000°02'0 0.0
2017-Apr-20 15:00N 49°29' W 000°02'0 0.1
2017-Apr-20 14:30N 49°29' W 000°02'0 0.0
2017-Apr-20 13:30N 49°29' W 000°02'0 0.0
2017-Apr-20 13:00N 49°29' W 000°02'0 0.0
2017-Apr-20 12:30N 49°29' W 000°02'0 0.0
2017-Apr-20 12:00N 49°29' W 000°02'0 0.0
2017-Apr-20 11:30N 49°29' W 000°02'0 0.0
2017-Apr-20 11:00N 49°29' W 000°02'0 0.0
2017-Apr-20 10:30N 49°29' W 000°02'0 0.0
2017-Apr-20 10:00N 49°29' W 000°02'0 0.0
2017-Apr-20 09:30N 49°29' W 000°02'0 0.0
2017-Apr-20 09:00N 49°29' W 000°02'0 0.0
2017-Apr-20 08:30N 49°29' W 000°02'0 0.0
2017-Apr-20 08:00N 49°29' W 000°02'0 0.0
2017-Apr-20 07:30N 49°29' W 000°02'0 0.0
2017-Apr-20 07:00N 49°29' W 000°02'0 0.0
2017-Apr-20 06:30N 49°29' W 000°02'0 0.1
2017-Apr-20 06:00N 49°29' W 000°02'0 0.0
2017-Apr-20 05:30N 49°29' W 000°02'0 0.1
2017-Apr-20 05:00N 49°29' W 000°02'0 0.0
2017-Apr-20 04:30N 49°29' W 000°02'0 0.0
2017-Apr-20 04:00N 49°29' W 000°02'0 0.0
2017-Apr-20 03:30N 49°29' W 000°02'0 0.0
2017-Apr-20 03:00N 49°29' W 000°02'0 0.0
2017-Apr-20 02:30N 49°29' W 000°02'0 0.1
2017-Apr-20 02:00N 49°29' W 000°02'0 0.2
2017-Apr-20 01:30N 49°29' W 000°02'0 0.1
2017-Apr-20 01:00N 49°29' W 000°02'0 0.0
2017-Apr-20 00:30N 49°29' W 000°02'0 0.0
2017-Apr-20 00:00N 49°29' W 000°02'0 0.0
2017-Apr-19 23:30N 49°29' W 000°02'0 0.0
2017-Apr-19 23:00N 49°29' W 000°02'0 0.0
2017-Apr-19 22:30N 49°29' W 000°02'0 0.0
2017-Apr-19 22:00N 49°29' W 000°02'0 0.0
2017-Apr-19 21:30N 49°29' W 000°02'0 0.0
2017-Apr-19 21:00N 49°29' W 000°02'0 0.0
2017-Apr-19 20:30N 49°29' W 000°02'0 0.0
2017-Apr-19 20:00N 49°29' W 000°02'0 0.0
2017-Apr-19 19:30N 49°29' W 000°02'0 0.0
2017-Apr-19 19:00N 49°29' W 000°02'0 0.0
2017-Apr-19 18:30N 49°29' W 000°02'0 0.0
2017-Apr-19 18:00N 49°29' W 000°02'0 0.0
2017-Apr-19 17:30N 49°29' W 000°02'0 0.0
2017-Apr-19 17:00N 49°29' W 000°02'0 0.0
2017-Apr-19 16:30N 49°29' W 000°02'0 0.0
2017-Apr-19 16:00N 49°29' W 000°02'0 0.0
2017-Apr-19 15:30N 49°29' W 000°02'0 0.0
2017-Apr-19 15:00N 49°29' W 000°02'0 0.0
2017-Apr-19 14:30N 49°29' W 000°02'0 0.0
2017-Apr-19 13:24N 49°29' W 000°02'0 0.0
2017-Apr-19 13:00N 49°29' W 000°02'0 0.0
2017-Apr-19 12:30N 49°29' W 000°02'0 0.0
2017-Apr-19 12:00N 49°29' W 000°02'0 0.0
2017-Apr-19 11:30N 49°29' W 000°02'0 0.0
2017-Apr-19 11:00N 49°29' W 000°02'0 0.0
2017-Apr-19 10:30N 49°29' W 000°02'0 0.0
2017-Apr-19 10:00N 49°29' W 000°02'0 0.0
2017-Apr-19 09:30N 49°29' W 000°02'0 0.0
2017-Apr-19 09:00N 49°29' W 000°02'0 0.0
2017-Apr-19 08:30N 49°29' W 000°02'0 0.0
2017-Apr-19 08:00N 49°29' W 000°02'0 0.0
2017-Apr-19 07:30N 49°29' W 000°02'0 0.0
2017-Apr-19 07:00N 49°29' W 000°02'0 0.0
2017-Apr-19 06:30N 49°29' W 000°02'0 0.0
2017-Apr-19 06:00N 49°29' W 000°02'0 0.0
2017-Apr-19 05:30N 49°29' W 000°02'0 0.0
2017-Apr-19 05:00N 49°29' W 000°02'0 0.0
2017-Apr-19 04:30N 49°29' W 000°02'0 0.0
2017-Apr-19 04:00N 49°29' W 000°02'0 0.2
2017-Apr-19 03:30N 49°29' W 000°02'0 0.1
2017-Apr-19 03:00N 49°29' W 000°02'0 0.0
2017-Apr-19 02:30N 49°29' W 000°02'0 0.1
2017-Apr-19 02:00N 49°29' W 000°02'0 0.0
2017-Apr-19 01:30N 49°29' W 000°02'0 0.3
2017-Apr-19 01:00N 49°29' W 000°02'0 0.2
2017-Apr-19 00:30N 49°29' W 000°02'0 0.0
2017-Apr-19 00:00N 49°29' W 000°02'0 0.0
2017-Apr-18 23:30N 49°29' W 000°02'0 0.0
2017-Apr-18 23:00N 49°29' W 000°02'0 0.0
2017-Apr-18 22:31N 49°29' W 000°02'0 0.0
2017-Apr-18 22:00N 49°29' W 000°02'0 0.0
2017-Apr-18 21:30N 49°29' W 000°02'0 0.0
2017-Apr-18 21:00N 49°29' W 000°02'0 0.0
2017-Apr-18 20:30N 49°29' W 000°02'0 0.0
2017-Apr-18 20:00N 49°29' W 000°02'0 0.0
2017-Apr-18 19:30N 49°29' W 000°02'0 0.0
2017-Apr-18 19:00N 49°29' W 000°02'0 0.0
2017-Apr-18 18:30N 49°29' W 000°02'0 0.0
2017-Apr-18 18:00N 49°29' W 000°02'0 0.0
2017-Apr-18 17:30N 49°29' W 000°02'0 0.0
2017-Apr-18 17:00N 49°29' W 000°02'0 0.0
2017-Apr-18 16:30N 49°29' W 000°02'0 0.0
2017-Apr-18 16:00N 49°29' W 000°02'0 0.0
2017-Apr-18 15:27N 49°29' W 000°02'0 0.0
2017-Apr-18 15:00N 49°29' W 000°02'0 0.0
2017-Apr-18 14:00N 49°29' W 000°02'0 0.0
2017-Apr-18 13:30N 49°29' W 000°02'0 0.0
2017-Apr-18 13:00N 49°29' W 000°02'0 0.0
2017-Apr-18 12:30N 49°29' W 000°02'0 0.0
2017-Apr-18 12:00N 49°29' W 000°02'0 0.0
2017-Apr-18 11:30N 49°29' W 000°02'0 0.0
2017-Apr-18 11:00N 49°29' W 000°02'0 0.0
2017-Apr-18 10:30N 49°29' W 000°02'0 0.0
2017-Apr-18 10:00N 49°29' W 000°02'0 0.0
2017-Apr-18 09:30N 49°29' W 000°02'0 0.0
2017-Apr-18 09:00N 49°29' W 000°02'0 0.1
2017-Apr-18 08:30N 49°29' W 000°02'0 0.0
2017-Apr-18 08:00N 49°29' W 000°02'0 0.0
2017-Apr-18 07:30N 49°29' W 000°02'0 0.0
2017-Apr-18 07:00N 49°29' W 000°02'0 0.0
2017-Apr-18 06:30N 49°29' W 000°02'0 0.0
2017-Apr-18 06:00N 49°29' W 000°02'0 0.0
2017-Apr-18 05:30N 49°29' W 000°02'0 0.1
2017-Apr-18 05:00N 49°29' W 000°02'0 0.0
2017-Apr-18 04:30N 49°29' W 000°02'0 0.1
2017-Apr-18 04:00N 49°29' W 000°02'0 0.8
2017-Apr-18 03:30N 49°29' W 000°02'2 4.8
2017-Apr-18 03:00N 49°31' W 000°05'5 9.6
2017-Apr-18 02:30N 49°33' W 000°12'4 7.5
2017-Apr-18 02:00N 49°34' W 000°17'612.9
2017-Apr-18 01:30N 49°37' W 000°26'715.0
2017-Apr-18 01:01N 49°40' W 000°36'815.4
2017-Apr-18 00:30N 49°43' W 000°47'815.7
2017-Apr-18 00:01N 49°48' W 000°57'916.5
2017-Apr-17 23:29N 49°52' W 001°09'817.0
2017-Apr-17 23:00N 49°55' W 001°20'4915.4
2017-Apr-17 19:51N 49°51' W 002°35'714.0
2017-Apr-17 19:22N 49°50' W 002°45'1013.1
2017-Apr-17 18:35N 49°47' W 003°01'113.4
2017-Apr-17 18:30N 49°46' W 003°02'713.3
2017-Apr-17 17:59N 49°43' W 003°11'613.3
2017-Apr-17 17:30N 49°39' W 003°20'713.4
2017-Apr-17 16:57N 49°35' W 003°29'1313.3
2017-Apr-17 15:59N 49°28' W 003°45'713.1
2017-Apr-17 15:28N 49°24' W 003°54'  
Track history (hours):
 
Tides and Currents Weather Stations Pressure Air Temp Water Temp Dewpoint Dewpoint Depression Visibility Wind Speed Wind Dir Waves Ship Positions

Eships Dana

Last reported at 2017-Apr-27 12:01 UTC. Time now 2017-Apr-28 06:36 UTC.
Position N 56°02' W 003°41'.

Length 116 m; draft 5.5 m.

Type: Ship (hazmat cat A). MMSI: 236566000.

Date/timePositionNaut miles runAvg speedWind from/ knotsBaromVisibWave heightAir tempDewpointWater temp
2017-Apr-27 12:01N 56°02' W 003°41'0 0.0
2017-Apr-27 11:21N 56°02' W 003°41'0 0.1
2017-Apr-27 11:01N 56°02' W 003°41'6 3.4
2017-Apr-27 09:10N 56°01' W 003°30'212.0
2017-Apr-27 08:59N 56°01' W 003°27'510.2
2017-Apr-27 08:31N 56°01' W 003°18'612.0
2017-Apr-27 08:01N 56°03' W 003°08'2 3.9
2017-Apr-27 07:31N 56°04' W 003°05'1 1.3
2017-Apr-27 07:01N 56°05' W 003°06'0 0.2
2017-Apr-27 06:28N 56°05' W 003°05'0 0.0
2017-Apr-27 05:58N 56°05' W 003°05'0 0.0
2017-Apr-27 05:28N 56°05' W 003°05'0 0.0
2017-Apr-27 04:58N 56°05' W 003°05'0 0.0
2017-Apr-27 04:31N 56°05' W 003°05'0 0.0
2017-Apr-27 03:58N 56°05' W 003°05'0 0.0
2017-Apr-27 03:28N 56°05' W 003°05'0 0.0
2017-Apr-27 03:01N 56°05' W 003°05'0 0.0
2017-Apr-27 02:31N 56°05' W 003°05'0 0.0
2017-Apr-27 01:58N 56°05' W 003°05'0 0.0
2017-Apr-27 01:28N 56°05' W 003°05'0 0.0
2017-Apr-27 00:58N 56°05' W 003°05'0 0.0
2017-Apr-27 00:31N 56°05' W 003°05'0 0.0
2017-Apr-26 23:58N 56°05' W 003°05'0 0.1
2017-Apr-26 23:28N 56°05' W 003°05'0 0.1
2017-Apr-26 23:01N 56°05' W 003°06'0 0.1
2017-Apr-26 22:28N 56°05' W 003°06'0 0.0
2017-Apr-26 21:58N 56°05' W 003°06'0 0.1
2017-Apr-26 21:28N 56°05' W 003°05'0 0.1
2017-Apr-26 21:01N 56°05' W 003°05'0 0.0
2017-Apr-26 20:28N 56°05' W 003°05'0 0.0
2017-Apr-26 19:58N 56°05' W 003°05'0 0.0
2017-Apr-26 19:31N 56°05' W 003°05'0 0.0
2017-Apr-26 19:00N 56°05' W 003°05'0 0.0
2017-Apr-26 18:30N 56°05' W 003°06'0 0.3
2017-Apr-26 18:00N 56°05' W 003°05'2 3.6
2017-Apr-26 17:30N 56°05' W 003°02'5 9.3
2017-Apr-26 17:01N 56°06' W 002°54'612.1
2017-Apr-26 16:30N 56°08' W 002°43'713.1
2017-Apr-26 16:00N 56°07' W 002°32'713.4
2017-Apr-26 15:30N 56°05' W 002°21'713.2
2017-Apr-26 15:00N 56°01' W 002°10'612.7
2017-Apr-26 14:31N 55°59' W 001°60'1211.9
2017-Apr-26 13:30N 55°50' W 001°45'611.7
2017-Apr-26 13:00N 55°46' W 001°38'710.9
2017-Apr-26 12:24N 55°41' W 001°30'410.8
2017-Apr-26 12:00N 55°38' W 001°26'611.3
2017-Apr-26 11:30N 55°33' W 001°19'611.8
2017-Apr-26 11:00N 55°29' W 001°12'612.2
2017-Apr-26 10:30N 55°25' W 001°05'612.0
2017-Apr-26 10:00N 55°20' W 000°58'612.1
2017-Apr-26 09:30N 55°15' W 000°51'4611.6
2017-Apr-26 05:33N 54°50' E 000°16'1 9.0
2017-Apr-26 05:30N 54°50' E 000°17'4 8.8
2017-Apr-26 05:00N 54°47' E 000°22'12 8.7
2017-Apr-26 03:37N 54°38' E 000°37'1 8.6
2017-Apr-26 03:30N 54°38' E 000°38'183 9.7
2017-Apr-25 08:43N 51°49' E 002°36'3 8.5
2017-Apr-25 08:24N 51°46' E 002°35'4 9.4
2017-Apr-25 08:00N 51°43' E 002°33'5 9.8
2017-Apr-25 07:29N 51°39' E 002°28'5 9.8
2017-Apr-25 07:00N 51°35' E 002°23'5 9.6
2017-Apr-25 06:27N 51°31' E 002°17'410.1
2017-Apr-25 06:00N 51°28' E 002°12'510.1
2017-Apr-25 05:30N 51°23' E 002°11'510.7
2017-Apr-25 05:00N 51°20' E 002°18'612.6
2017-Apr-25 04:30N 51°22' E 002°28'4 8.4
2017-Apr-25 04:01N 51°21' E 002°34'2 2.9
2017-Apr-25 03:29N 51°20' E 002°36'0 0.0
2017-Apr-25 02:59N 51°20' E 002°36'0 0.0
2017-Apr-25 02:29N 51°20' E 002°36'0 0.0
2017-Apr-25 01:59N 51°20' E 002°36'0 0.0
2017-Apr-25 01:29N 51°20' E 002°36'0 0.1
2017-Apr-25 00:59N 51°20' E 002°36'0 0.0
2017-Apr-25 00:29N 51°20' E 002°36'0 0.0
2017-Apr-24 23:59N 51°20' E 002°36'0 0.0
2017-Apr-24 23:29N 51°20' E 002°36'0 0.0
2017-Apr-24 22:59N 51°20' E 002°36'0 0.1
2017-Apr-24 22:29N 51°20' E 002°36'0 0.0
2017-Apr-24 21:59N 51°20' E 002°36'0 0.1
2017-Apr-24 21:29N 51°20' E 002°36'0 0.1
2017-Apr-24 20:59N 51°20' E 002°36'0 0.1
2017-Apr-24 20:29N 51°20' E 002°36'0 0.0
2017-Apr-24 19:59N 51°20' E 002°36'0 0.1
2017-Apr-24 19:29N 51°20' E 002°36'0 0.0
2017-Apr-24 18:59N 51°20' E 002°36'0 0.1
2017-Apr-24 18:29N 51°20' E 002°36'0 0.0
2017-Apr-24 17:59N 51°20' E 002°36'0 0.2
2017-Apr-24 17:29N 51°20' E 002°36'0 0.1
2017-Apr-24 16:56N 51°20' E 002°36'0 0.1
2017-Apr-24 16:29N 51°20' E 002°36'0 0.0
2017-Apr-24 15:59N 51°20' E 002°36'0 0.0
2017-Apr-24 15:29N 51°20' E 002°36'0 0.0
2017-Apr-24 14:59N 51°20' E 002°36'0 0.0
2017-Apr-24 14:29N 51°20' E 002°36'0 0.0
2017-Apr-24 13:29N 51°20' E 002°36'0 0.0
2017-Apr-24 12:59N 51°20' E 002°36'0 0.0
2017-Apr-24 12:29N 51°20' E 002°36'0 0.0
2017-Apr-24 11:59N 51°20' E 002°36'0 0.0
2017-Apr-24 11:29N 51°20' E 002°36'0 0.0
2017-Apr-24 10:59N 51°20' E 002°36'0 0.0
2017-Apr-24 10:29N 51°20' E 002°36'0 0.0
2017-Apr-24 09:59N 51°20' E 002°36'0 0.0
2017-Apr-24 09:29N 51°20' E 002°36'0 0.1
2017-Apr-24 08:56N 51°20' E 002°36'0 0.0
2017-Apr-24 08:29N 51°20' E 002°36'0 0.0
2017-Apr-24 07:59N 51°20' E 002°36'0 0.2
2017-Apr-24 07:29N 51°20' E 002°36'0 0.0
2017-Apr-24 06:59N 51°20' E 002°36'0 0.0
2017-Apr-24 06:26N 51°20' E 002°36'0 0.1
2017-Apr-24 05:59N 51°20' E 002°36'0 0.2
2017-Apr-24 05:29N 51°20' E 002°36'0 0.2
2017-Apr-24 04:59N 51°20' E 002°36'0 0.0
2017-Apr-24 04:29N 51°20' E 002°36'0 0.0
2017-Apr-24 03:59N 51°20' E 002°36'0 0.0
2017-Apr-24 03:29N 51°20' E 002°36'0 0.0
2017-Apr-24 02:59N 51°20' E 002°36'0 0.0
2017-Apr-24 02:29N 51°20' E 002°36'0 0.0
2017-Apr-24 01:59N 51°20' E 002°36'0 0.0
2017-Apr-24 01:29N 51°20' E 002°36'0 0.0
2017-Apr-24 00:59N 51°20' E 002°36'0 0.0
2017-Apr-24 00:29N 51°20' E 002°36'0 0.0
2017-Apr-23 23:59N 51°20' E 002°36'0 0.0
2017-Apr-23 23:29N 51°20' E 002°36'0 0.0
2017-Apr-23 22:59N 51°20' E 002°36'0 0.0
2017-Apr-23 22:29N 51°20' E 002°36'0 0.0
2017-Apr-23 21:59N 51°20' E 002°36'0 0.0
2017-Apr-23 21:29N 51°20' E 002°36'0 0.2
2017-Apr-23 20:59N 51°20' E 002°36'0 0.1
2017-Apr-23 20:29N 51°20' E 002°36'0 0.0
2017-Apr-23 19:59N 51°20' E 002°36'0 0.0
2017-Apr-23 19:29N 51°20' E 002°36'0 0.0
2017-Apr-23 18:59N 51°20' E 002°36'0 0.0
2017-Apr-23 18:29N 51°20' E 002°36'0 0.0
2017-Apr-23 17:59N 51°20' E 002°36'0 0.0
2017-Apr-23 17:29N 51°20' E 002°36'0 0.0
2017-Apr-23 16:59N 51°20' E 002°36'0 0.0
2017-Apr-23 16:26N 51°20' E 002°36'0 0.0
2017-Apr-23 15:59N 51°20' E 002°36'0 0.0
2017-Apr-23 15:29N 51°20' E 002°36'0 0.0
2017-Apr-23 14:59N 51°20' E 002°36'0 0.0
2017-Apr-23 13:59N 51°20' E 002°36'0 0.2
2017-Apr-23 13:29N 51°20' E 002°36'0 0.0
2017-Apr-23 12:59N 51°20' E 002°36'0 0.0
2017-Apr-23 12:29N 51°20' E 002°36'0 0.0
2017-Apr-23 11:59N 51°20' E 002°36'0 0.0
2017-Apr-23 11:29N 51°20' E 002°36'0 0.0
2017-Apr-23 10:59N 51°20' E 002°36'0 0.0
2017-Apr-23 10:29N 51°20' E 002°36'0 0.0
2017-Apr-23 09:59N 51°20' E 002°36'0 0.0
2017-Apr-23 09:29N 51°20' E 002°36'0 0.0
2017-Apr-23 08:59N 51°20' E 002°36'0 0.1
2017-Apr-23 08:29N 51°20' E 002°36'0 0.1
2017-Apr-23 07:59N 51°20' E 002°36'0 0.0
2017-Apr-23 07:29N 51°20' E 002°36'0 0.0
2017-Apr-23 06:59N 51°20' E 002°36'0 0.0
2017-Apr-23 06:29N 51°20' E 002°36'0 0.0
2017-Apr-23 05:59N 51°20' E 002°36'0 0.0
2017-Apr-23 05:29N 51°20' E 002°36'0 0.0
2017-Apr-23 04:59N 51°20' E 002°36'0 0.0
2017-Apr-23 04:29N 51°20' E 002°36'0 0.0
2017-Apr-23 03:53N 51°20' E 002°36'0 0.0
2017-Apr-23 03:29N 51°20' E 002°36'0 0.0
2017-Apr-23 02:59N 51°20' E 002°36'0 0.0
2017-Apr-23 02:29N 51°20' E 002°36'0 0.0
2017-Apr-23 01:59N 51°20' E 002°36'0 0.0
2017-Apr-23 01:29N 51°20' E 002°36'0 0.0
2017-Apr-23 00:59N 51°20' E 002°36'0 0.1
2017-Apr-23 00:29N 51°20' E 002°36'0 0.1
2017-Apr-22 23:59N 51°20' E 002°36'0 0.0
2017-Apr-22 23:29N 51°20' E 002°36'0 0.0
2017-Apr-22 22:59N 51°20' E 002°36'0 0.5
2017-Apr-22 22:30N 51°21' E 002°36'4 7.2
2017-Apr-22 22:00N 51°22' E 002°31'713.1
2017-Apr-22 21:31N 51°19' E 002°21'714.0
2017-Apr-22 21:00N 51°15' E 002°12'714.0
2017-Apr-22 20:31N 51°12' E 002°02'713.0
2017-Apr-22 20:00N 51°10' E 001°52'713.5
2017-Apr-22 19:30N 51°05' E 001°44'612.6
2017-Apr-22 19:00N 51°00' E 001°38'510.5
2017-Apr-22 18:30N 50°57' E 001°32'611.9
2017-Apr-22 18:00N 50°51' E 001°28'611.6
2017-Apr-22 17:30N 50°46' E 001°26'611.3
2017-Apr-22 17:00N 50°41' E 001°21'611.8
2017-Apr-22 16:30N 50°37' E 001°13'3911.1
2017-Apr-22 13:02N 50°21' E 000°18'011.4
2017-Apr-22 13:00N 50°21' E 000°18'611.3
2017-Apr-22 12:30N 50°19' E 000°10'611.3
2017-Apr-22 12:00N 50°17' E 000°01'611.1
2017-Apr-22 11:27N 50°13' W 000°05'511.7
2017-Apr-22 11:00N 50°08' W 000°08'611.9
2017-Apr-22 10:30N 50°02' W 000°12'612.1
2017-Apr-22 10:00N 49°57' W 000°15'612.2
2017-Apr-22 09:30N 49°51' W 000°15'713.0
2017-Apr-22 09:00N 49°45' W 000°10'612.5
2017-Apr-22 08:30N 49°39' W 000°06'612.5
2017-Apr-22 08:00N 49°34' W 000°02'611.6
2017-Apr-22 07:30N 49°29' E 000°04'4 8.1
2017-Apr-22 07:01N 49°29' E 000°10'0 0.4
2017-Apr-22 06:30N 49°29' E 000°11'1 1.9
2017-Apr-22 06:00N 49°29' E 000°12'0 0.0
2017-Apr-22 05:30N 49°29' E 000°12'0 0.0
2017-Apr-22 05:00N 49°29' E 000°12'0 0.0
2017-Apr-22 04:30N 49°29' E 000°12'0 0.0
2017-Apr-22 04:00N 49°29' E 000°12'0 0.0
2017-Apr-22 03:30N 49°29' E 000°12'0 0.0
2017-Apr-22 03:00N 49°29' E 000°12'0 0.0
2017-Apr-22 02:30N 49°29' E 000°12'0 0.0
2017-Apr-22 02:00N 49°29' E 000°12'0 0.0
2017-Apr-22 01:30N 49°29' E 000°12'0 0.0
2017-Apr-22 01:00N 49°29' E 000°12'0 0.0
2017-Apr-22 00:30N 49°29' E 000°12'0 0.0
2017-Apr-22 00:00N 49°29' E 000°12'0 0.0
2017-Apr-21 23:30N 49°29' E 000°12'0 0.0
2017-Apr-21 23:00N 49°29' E 000°12'0 0.0
2017-Apr-21 22:30N 49°29' E 000°12'0 0.0
2017-Apr-21 22:00N 49°29' E 000°12'0 0.0
2017-Apr-21 21:30N 49°29' E 000°12'0 0.0
2017-Apr-21 21:00N 49°29' E 000°12'0 0.0
2017-Apr-21 20:30N 49°29' E 000°12'0 0.0
2017-Apr-21 20:00N 49°29' E 000°12'0 0.0
2017-Apr-21 19:30N 49°29' E 000°12'0 0.0
2017-Apr-21 19:00N 49°29' E 000°12'0 0.0
2017-Apr-21 18:30N 49°29' E 000°12'0 0.0
2017-Apr-21 18:00N 49°29' E 000°12'0 0.0
2017-Apr-21 17:30N 49°29' E 000°12'0 0.0
2017-Apr-21 17:00N 49°29' E 000°12'0 0.0
2017-Apr-21 16:30N 49°29' E 000°12'0 0.0
2017-Apr-21 16:00N 49°29' E 000°12'0 0.0
2017-Apr-21 15:30N 49°29' E 000°12'0 0.0
2017-Apr-21 15:00N 49°29' E 000°12'0 0.0
2017-Apr-21 14:30N 49°29' E 000°12'0 0.0
2017-Apr-21 13:30N 49°29' E 000°12'0 0.0
2017-Apr-21 13:00N 49°29' E 000°12'0 0.0
2017-Apr-21 12:30N 49°29' E 000°12'0 0.0
2017-Apr-21 12:00N 49°29' E 000°12'0 0.0
2017-Apr-21 11:30N 49°29' E 000°12'0 0.0
2017-Apr-21 11:00N 49°29' E 000°12'0 0.0
2017-Apr-21 10:30N 49°29' E 000°12'0 0.0
2017-Apr-21 10:00N 49°29' E 000°12'0 0.0
2017-Apr-21 09:30N 49°29' E 000°12'0 0.0
2017-Apr-21 09:00N 49°29' E 000°12'0 0.0
2017-Apr-21 08:30N 49°29' E 000°12'0 0.0
2017-Apr-21 08:00N 49°29' E 000°12'0 0.0
2017-Apr-21 07:30N 49°29' E 000°12'0 0.0
2017-Apr-21 07:00N 49°29' E 000°12'0 0.0
2017-Apr-21 06:30N 49°29' E 000°12'0 0.0
2017-Apr-21 06:00N 49°29' E 000°12'0 0.0
2017-Apr-21 05:30N 49°29' E 000°12'0 0.0
2017-Apr-21 05:00N 49°29' E 000°12'0 0.0
2017-Apr-21 04:30N 49°29' E 000°12'0 0.0
2017-Apr-21 04:00N 49°29' E 000°12'0 0.0
2017-Apr-21 03:30N 49°29' E 000°12'0 0.0
2017-Apr-21 03:00N 49°29' E 000°12'0 0.0
2017-Apr-21 02:30N 49°29' E 000°12'0 0.0
2017-Apr-21 02:00N 49°29' E 000°12'0 0.0
2017-Apr-21 01:30N 49°29' E 000°12'0 0.0
2017-Apr-21 01:00N 49°29' E 000°12'0 0.0
2017-Apr-21 00:30N 49°29' E 000°12'0 0.0
2017-Apr-21 00:00N 49°29' E 000°12'0 0.0
2017-Apr-20 23:30N 49°29' E 000°12'0 0.0
2017-Apr-20 23:00N 49°29' E 000°12'0 0.0
2017-Apr-20 22:30N 49°29' E 000°12'0 0.0
2017-Apr-20 22:00N 49°29' E 000°12'0 0.0
2017-Apr-20 21:30N 49°29' E 000°12'1 2.4
2017-Apr-20 21:01N 49°29' E 000°10'0 0.6
2017-Apr-20 20:31N 49°28' E 000°10'5 9.5
2017-Apr-20 20:01N 49°30' E 000°03'3 6.6
2017-Apr-20 19:30N 49°29' W 000°02'0 0.0
2017-Apr-20 19:00N 49°29' W 000°02'0 0.0
2017-Apr-20 18:30N 49°29' W 000°02'0 0.0
2017-Apr-20 18:00N 49°29' W 000°02'0 0.0
2017-Apr-20 17:30N 49°29' W 000°02'0 0.0
2017-Apr-20 17:00N 49°29' W 000°02'0 0.1
2017-Apr-20 16:30N 49°29' W 000°02'0 0.1
2017-Apr-20 16:00N 49°29' W 000°02'0 0.1
2017-Apr-20 15:30N 49°29' W 000°02'0 0.0
2017-Apr-20 15:00N 49°29' W 000°02'0 0.1
2017-Apr-20 14:30N 49°29' W 000°02'0 0.0
2017-Apr-20 13:30N 49°29' W 000°02'0 0.0
2017-Apr-20 13:00N 49°29' W 000°02'0 0.0
2017-Apr-20 12:30N 49°29' W 000°02'0 0.0
2017-Apr-20 12:00N 49°29' W 000°02'0 0.0
2017-Apr-20 11:30N 49°29' W 000°02'0 0.0
2017-Apr-20 11:00N 49°29' W 000°02'0 0.0
2017-Apr-20 10:30N 49°29' W 000°02'0 0.0
2017-Apr-20 10:00N 49°29' W 000°02'0 0.0
2017-Apr-20 09:30N 49°29' W 000°02'0 0.0
2017-Apr-20 09:00N 49°29' W 000°02'0 0.0
2017-Apr-20 08:30N 49°29' W 000°02'0 0.0
2017-Apr-20 08:00N 49°29' W 000°02'0 0.0
2017-Apr-20 07:30N 49°29' W 000°02'0 0.0
2017-Apr-20 07:00N 49°29' W 000°02'0 0.0
2017-Apr-20 06:30N 49°29' W 000°02'0 0.1
2017-Apr-20 06:00N 49°29' W 000°02'0 0.0
2017-Apr-20 05:30N 49°29' W 000°02'0 0.1
2017-Apr-20 05:00N 49°29' W 000°02'0 0.0
2017-Apr-20 04:30N 49°29' W 000°02'0 0.0
2017-Apr-20 04:00N 49°29' W 000°02'0 0.0
2017-Apr-20 03:30N 49°29' W 000°02'0 0.0
2017-Apr-20 03:00N 49°29' W 000°02'0 0.0
2017-Apr-20 02:30N 49°29' W 000°02'0 0.1
2017-Apr-20 02:00N 49°29' W 000°02'0 0.2
2017-Apr-20 01:30N 49°29' W 000°02'0 0.1
2017-Apr-20 01:00N 49°29' W 000°02'0 0.0
2017-Apr-20 00:30N 49°29' W 000°02'0 0.0
2017-Apr-20 00:00N 49°29' W 000°02'0 0.0
2017-Apr-19 23:30N 49°29' W 000°02'0 0.0
2017-Apr-19 23:00N 49°29' W 000°02'0 0.0
2017-Apr-19 22:30N 49°29' W 000°02'0 0.0
2017-Apr-19 22:00N 49°29' W 000°02'0 0.0
2017-Apr-19 21:30N 49°29' W 000°02'0 0.0
2017-Apr-19 21:00N 49°29' W 000°02'0 0.0
2017-Apr-19 20:30N 49°29' W 000°02'0 0.0
2017-Apr-19 20:00N 49°29' W 000°02'0 0.0
2017-Apr-19 19:30N 49°29' W 000°02'0 0.0
2017-Apr-19 19:00N 49°29' W 000°02'0 0.0
2017-Apr-19 18:30N 49°29' W 000°02'0 0.0
2017-Apr-19 18:00N 49°29' W 000°02'0 0.0
2017-Apr-19 17:30N 49°29' W 000°02'0 0.0
2017-Apr-19 17:00N 49°29' W 000°02'0 0.0
2017-Apr-19 16:30N 49°29' W 000°02'0 0.0
2017-Apr-19 16:00N 49°29' W 000°02'0 0.0
2017-Apr-19 15:30N 49°29' W 000°02'0 0.0
2017-Apr-19 15:00N 49°29' W 000°02'0 0.0
2017-Apr-19 14:30N 49°29' W 000°02'0 0.0
2017-Apr-19 13:24N 49°29' W 000°02'0 0.0
2017-Apr-19 13:00N 49°29' W 000°02'0 0.0
2017-Apr-19 12:30N 49°29' W 000°02'0 0.0
2017-Apr-19 12:00N 49°29' W 000°02'0 0.0
2017-Apr-19 11:30N 49°29' W 000°02'0 0.0
2017-Apr-19 11:00N 49°29' W 000°02'0 0.0
2017-Apr-19 10:30N 49°29' W 000°02'0 0.0
2017-Apr-19 10:00N 49°29' W 000°02'0 0.0
2017-Apr-19 09:30N 49°29' W 000°02'0 0.0
2017-Apr-19 09:00N 49°29' W 000°02'0 0.0
2017-Apr-19 08:30N 49°29' W 000°02'0 0.0
2017-Apr-19 08:00N 49°29' W 000°02'0 0.0
2017-Apr-19 07:30N 49°29' W 000°02'0 0.0
2017-Apr-19 07:00N 49°29' W 000°02'0 0.0
2017-Apr-19 06:30N 49°29' W 000°02'0 0.0
2017-Apr-19 06:00N 49°29' W 000°02'0 0.0
2017-Apr-19 05:30N 49°29' W 000°02'0 0.0
2017-Apr-19 05:00N 49°29' W 000°02'0 0.0
2017-Apr-19 04:30N 49°29' W 000°02'0 0.0
2017-Apr-19 04:00N 49°29' W 000°02'0 0.2
2017-Apr-19 03:30N 49°29' W 000°02'0 0.1
2017-Apr-19 03:00N 49°29' W 000°02'0 0.0
2017-Apr-19 02:30N 49°29' W 000°02'0 0.1
2017-Apr-19 02:00N 49°29' W 000°02'0 0.0
2017-Apr-19 01:30N 49°29' W 000°02'0 0.3
2017-Apr-19 01:00N 49°29' W 000°02'0 0.2
2017-Apr-19 00:30N 49°29' W 000°02'0 0.0
2017-Apr-19 00:00N 49°29' W 000°02'0 0.0
2017-Apr-18 23:30N 49°29' W 000°02'0 0.0
2017-Apr-18 23:00N 49°29' W 000°02'0 0.0
2017-Apr-18 22:31N 49°29' W 000°02'0 0.0
2017-Apr-18 22:00N 49°29' W 000°02'0 0.0
2017-Apr-18 21:30N 49°29' W 000°02'0 0.0
2017-Apr-18 21:00N 49°29' W 000°02'0 0.0
2017-Apr-18 20:30N 49°29' W 000°02'0 0.0
2017-Apr-18 20:00N 49°29' W 000°02'0 0.0
2017-Apr-18 19:30N 49°29' W 000°02'0 0.0
2017-Apr-18 19:00N 49°29' W 000°02'0 0.0
2017-Apr-18 18:30N 49°29' W 000°02'0 0.0
2017-Apr-18 18:00N 49°29' W 000°02'0 0.0
2017-Apr-18 17:30N 49°29' W 000°02'0 0.0
2017-Apr-18 17:00N 49°29' W 000°02'0 0.0
2017-Apr-18 16:30N 49°29' W 000°02'0 0.0
2017-Apr-18 16:00N 49°29' W 000°02'0 0.0
2017-Apr-18 15:27N 49°29' W 000°02'0 0.0
2017-Apr-18 15:00N 49°29' W 000°02'0 0.0
2017-Apr-18 14:00N 49°29' W 000°02'0 0.0
2017-Apr-18 13:30N 49°29' W 000°02'0 0.0
2017-Apr-18 13:00N 49°29' W 000°02'0 0.0
2017-Apr-18 12:30N 49°29' W 000°02'0 0.0
2017-Apr-18 12:00N 49°29' W 000°02'0 0.0
2017-Apr-18 11:30N 49°29' W 000°02'0 0.0
2017-Apr-18 11:00N 49°29' W 000°02'0 0.0
2017-Apr-18 10:30N 49°29' W 000°02'0 0.0
2017-Apr-18 10:00N 49°29' W 000°02'0 0.0
2017-Apr-18 09:30N 49°29' W 000°02'0 0.0
2017-Apr-18 09:00N 49°29' W 000°02'0 0.1
2017-Apr-18 08:30N 49°29' W 000°02'0 0.0
2017-Apr-18 08:00N 49°29' W 000°02'0 0.0
2017-Apr-18 07:30N 49°29' W 000°02'0 0.0
2017-Apr-18 07:00N 49°29' W 000°02'0 0.0
2017-Apr-18 06:30N 49°29' W 000°02'0 0.0
2017-Apr-18 06:00N 49°29' W 000°02'0 0.0
2017-Apr-18 05:30N 49°29' W 000°02'0 0.1
2017-Apr-18 05:00N 49°29' W 000°02'0 0.0
2017-Apr-18 04:30N 49°29' W 000°02'0 0.1
2017-Apr-18 04:00N 49°29' W 000°02'0 0.8
2017-Apr-18 03:30N 49°29' W 000°02'2 4.8
2017-Apr-18 03:00N 49°31' W 000°05'5 9.6
2017-Apr-18 02:30N 49°33' W 000°12'4 7.5
2017-Apr-18 02:00N 49°34' W 000°17'612.9
2017-Apr-18 01:30N 49°37' W 000°26'715.0
2017-Apr-18 01:01N 49°40' W 000°36'815.4
2017-Apr-18 00:30N 49°43' W 000°47'815.7
2017-Apr-18 00:01N 49°48' W 000°57'916.5
2017-Apr-17 23:29N 49°52' W 001°09'817.0
2017-Apr-17 23:00N 49°55' W 001°20'4915.4
2017-Apr-17 19:51N 49°51' W 002°35'714.0
2017-Apr-17 19:22N 49°50' W 002°45'1013.1
2017-Apr-17 18:35N 49°47' W 003°01'113.4
2017-Apr-17 18:30N 49°46' W 003°02'713.3
2017-Apr-17 17:59N 49°43' W 003°11'613.3
2017-Apr-17 17:30N 49°39' W 003°20'713.4
2017-Apr-17 16:57N 49°35' W 003°29'1313.3
2017-Apr-17 15:59N 49°28' W 003°45'713.1
2017-Apr-17 15:28N 49°24' W 003°54'  

Dump ship's entire track history